createdAt,value
2018-06-27T00:01:04.295Z,8.70
2018-06-27T00:03:32.268Z,7.87
2018-06-27T00:06:00.175Z,7.83
2018-06-27T00:08:28.608Z,7.30
2018-06-27T00:10:56.493Z,7.40
2018-06-27T00:13:24.395Z,7.30
2018-06-27T00:15:52.319Z,7.77
2018-06-27T00:18:20.223Z,7.70
2018-06-27T00:20:48.252Z,7.80
2018-06-27T00:23:16.182Z,8.10
2018-06-27T00:25:44.408Z,6.13
2018-06-27T00:28:12.372Z,8.87
2018-06-27T00:30:40.636Z,7.10
2018-06-27T00:33:08.376Z,7.83
2018-06-27T00:35:36.752Z,6.90
2018-06-27T00:38:15.798Z,6.53
2018-06-27T00:40:43.972Z,6.63
2018-06-27T00:43:12.240Z,7.63
2018-06-27T00:45:40.118Z,7.47
2018-06-27T00:48:09.131Z,7.27
2018-06-27T00:50:37.196Z,7.80
2018-06-27T00:53:05.877Z,7.77
2018-06-27T00:55:34.053Z,7.93
2018-06-27T00:58:01.916Z,7.17
2018-06-27T01:00:29.981Z,7.53
2018-06-27T01:02:57.966Z,7.43
2018-06-27T01:05:26.139Z,7.27
2018-06-27T01:07:53.991Z,8.30
2018-06-27T01:10:22.242Z,7.93
2018-06-27T01:12:50.111Z,6.70
2018-06-27T01:15:17.981Z,8.40
2018-06-27T01:17:52.516Z,6.97
2018-06-27T01:20:20.412Z,7.00
2018-06-27T01:22:48.677Z,7.10
2018-06-27T01:25:16.720Z,6.50
2018-06-27T01:27:44.739Z,7.47
2018-06-27T01:30:12.741Z,7.57
2018-06-27T01:32:40.916Z,7.17
2018-06-27T01:35:08.932Z,7.03
2018-06-27T01:37:36.998Z,8.97
2018-06-27T01:40:04.765Z,8.00
2018-06-27T01:42:32.621Z,7.20
2018-06-27T01:45:00.594Z,6.67
2018-06-27T01:47:28.457Z,6.60
2018-06-27T01:49:56.680Z,6.10
2018-06-27T01:52:24.534Z,6.10
2018-06-27T01:54:52.401Z,5.70
2018-06-27T01:57:20.330Z,5.37
2018-06-27T01:59:48.088Z,6.03
2018-06-27T02:02:17.098Z,7.13
2018-06-27T02:04:45.592Z,6.10
2018-06-27T02:07:13.499Z,6.80
2018-06-27T02:09:41.466Z,7.27
2018-06-27T02:12:09.348Z,6.03
2018-06-27T02:14:37.232Z,5.70
2018-06-27T02:17:05.133Z,7.20
2018-06-27T02:19:33.023Z,5.90
2018-06-27T02:22:00.981Z,6.30
2018-06-27T02:24:29.644Z,5.80
2018-06-27T02:26:57.409Z,5.70
2018-06-27T02:29:25.898Z,6.60
2018-06-27T02:31:53.801Z,5.80
2018-06-27T02:34:21.777Z,6.70
2018-06-27T02:36:49.646Z,8.77
2018-06-27T02:39:17.583Z,6.83
2018-06-27T02:41:46.099Z,6.60
2018-06-27T02:44:13.985Z,6.50
2018-06-27T02:46:41.860Z,7.80
2018-06-27T02:49:09.738Z,7.03
2018-06-27T02:51:37.612Z,6.10
2018-06-27T02:54:05.566Z,7.27
2018-06-27T02:56:33.345Z,6.37
2018-06-27T02:59:01.281Z,6.13
2018-06-27T03:01:29.392Z,5.80
2018-06-27T03:03:57.298Z,6.23
2018-06-27T03:06:25.232Z,5.07
2018-06-27T03:08:53.995Z,5.43
2018-06-27T03:11:21.777Z,5.17
2018-06-27T03:13:49.709Z,4.80
2018-06-27T03:16:17.523Z,4.70
2018-06-27T03:18:52.560Z,4.63
2018-06-27T03:21:20.730Z,6.57
2018-06-27T03:23:49.409Z,5.70
2018-06-27T03:26:17.343Z,5.37
2018-06-27T03:28:45.533Z,4.87
2018-06-27T03:31:13.334Z,4.50
2018-06-27T03:33:41.321Z,5.73
2018-06-27T03:36:09.265Z,5.90
2018-06-27T03:38:37.411Z,6.87
2018-06-27T03:41:05.416Z,6.37
2018-06-27T03:43:33.447Z,6.17
2018-06-27T03:46:01.250Z,6.40
2018-06-27T03:48:29.524Z,6.33
2018-06-27T03:50:57.422Z,6.30
2018-06-27T03:53:25.466Z,6.27
2018-06-27T03:55:53.372Z,4.87
2018-06-27T03:58:21.279Z,6.13
2018-06-27T04:00:49.194Z,7.00
2018-06-27T04:03:17.122Z,6.50
2018-06-27T04:05:45.611Z,7.13
2018-06-27T04:08:14.802Z,7.50
2018-06-27T04:10:42.707Z,7.67
2018-06-27T04:13:11.677Z,7.57
2018-06-27T04:15:39.454Z,7.90
2018-06-27T04:18:07.586Z,8.47
2018-06-27T04:20:35.583Z,9.37
2018-06-27T04:23:03.497Z,9.30
2018-06-27T04:25:31.412Z,9.80
2018-06-27T04:27:59.504Z,10.07
2018-06-27T04:30:27.437Z,9.93
2018-06-27T04:32:56.245Z,10.70
2018-06-27T04:35:24.755Z,10.90
2018-06-27T04:37:52.685Z,10.50
2018-06-27T04:40:20.609Z,10.40
2018-06-27T04:42:49.378Z,11.30
2018-06-27T04:45:17.356Z,9.90
2018-06-27T04:47:45.243Z,12.23
2018-06-27T04:50:13.135Z,12.50
2018-06-27T04:52:42.118Z,11.67
2018-06-27T04:55:09.983Z,10.73
2018-06-27T04:57:38.085Z,13.53
2018-06-27T05:00:06.324Z,13.00
2018-06-27T05:02:34.245Z,12.33
2018-06-27T05:05:02.177Z,12.70
2018-06-27T05:07:30.520Z,14.37
2018-06-27T05:09:58.426Z,12.60
2018-06-27T05:12:26.340Z,13.90
2018-06-27T05:14:54.272Z,14.53
2018-06-27T05:17:22.175Z,14.07
2018-06-27T05:19:50.022Z,12.80
2018-06-27T05:22:17.911Z,16.30
2018-06-27T05:24:46.571Z,15.50
2018-06-27T05:27:14.478Z,14.73
2018-06-27T05:29:42.269Z,14.27
2018-06-27T05:32:10.250Z,14.57
2018-06-27T05:34:38.430Z,12.30
2018-06-27T05:37:07.004Z,13.67
2018-06-27T05:39:34.910Z,13.30
2018-06-27T05:42:02.849Z,12.43
2018-06-27T05:44:31.051Z,13.07
2018-06-27T05:46:59.190Z,13.40
2018-06-27T05:49:27.060Z,13.40
2018-06-27T05:51:56.342Z,13.03
2018-06-27T05:54:24.338Z,14.37
2018-06-27T05:56:52.321Z,11.57
2018-06-27T05:59:20.215Z,12.97
2018-06-27T06:01:48.179Z,14.67
2018-06-27T06:04:17.634Z,13.07
2018-06-27T06:06:46.121Z,12.13
2018-06-27T06:09:14.010Z,11.90
2018-06-27T06:11:42.729Z,14.53
2018-06-27T06:14:11.197Z,12.90
2018-06-27T06:16:39.153Z,12.30
2018-06-27T06:19:07.076Z,11.47
2018-06-27T06:21:34.856Z,11.10
2018-06-27T06:24:02.927Z,10.53
2018-06-27T06:26:31.913Z,7.60
2018-06-27T06:29:00.004Z,8.90
2018-06-27T06:31:27.947Z,8.77
2018-06-27T06:33:56.073Z,9.80
2018-06-27T06:36:24.047Z,8.70
2018-06-27T06:38:51.928Z,9.27
2018-06-27T06:41:19.882Z,9.03
2018-06-27T06:43:47.858Z,8.50
2018-06-27T06:46:16.648Z,9.40
2018-06-27T06:48:44.768Z,8.60
2018-06-27T06:51:12.678Z,7.83
2018-06-27T06:53:40.890Z,7.83
2018-06-27T06:56:09.574Z,8.80
2018-06-27T06:58:37.427Z,8.43
2018-06-27T07:01:05.254Z,7.53
2018-06-27T07:03:33.165Z,7.00
2018-06-27T07:06:01.471Z,6.50
2018-06-27T07:08:29.631Z,6.90
2018-06-27T07:10:57.547Z,7.23
2018-06-27T07:13:25.439Z,6.53
2018-06-27T07:15:53.520Z,7.03
2018-06-27T07:18:22.119Z,6.40
2018-06-27T07:20:50.075Z,5.90
2018-06-27T07:23:18.036Z,7.67
2018-06-27T07:25:45.838Z,7.53
2018-06-27T07:28:14.582Z,6.40
2018-06-27T07:30:43.531Z,6.43
2018-06-27T07:33:12.915Z,7.23
2018-06-27T07:35:40.848Z,6.90
2018-06-27T07:38:08.804Z,7.07
2018-06-27T07:40:37.043Z,7.10
2018-06-27T07:43:05.007Z,6.63
2018-06-27T07:45:34.372Z,6.43
2018-06-27T07:48:03.592Z,5.87
2018-06-27T07:50:31.498Z,6.10
2018-06-27T07:52:59.553Z,6.00
2018-06-27T07:55:28.160Z,7.00
2018-06-27T07:57:56.116Z,5.70
2018-06-27T08:00:24.722Z,4.70
2018-06-27T08:02:52.651Z,5.10
2018-06-27T08:05:20.581Z,5.97
2018-06-27T08:07:48.683Z,5.50
2018-06-27T08:10:16.871Z,4.93
2018-06-27T08:12:44.915Z,5.17
2018-06-27T08:15:12.855Z,4.30
2018-06-27T08:17:40.847Z,4.50
2018-06-27T08:20:10.085Z,3.50
2018-06-27T08:22:38.000Z,4.20
2018-06-27T08:25:06.126Z,4.03
2018-06-27T08:27:34.031Z,4.07
2018-06-27T08:30:02.061Z,4.40
2018-06-27T08:32:30.215Z,4.83
2018-06-27T08:34:58.105Z,5.63
2018-06-27T08:37:26.542Z,5.30
2018-06-27T08:39:54.663Z,6.77
2018-06-27T08:42:22.575Z,6.37
2018-06-27T08:44:50.496Z,6.80
2018-06-27T08:47:18.573Z,7.83
2018-06-27T08:49:47.204Z,7.27
2018-06-27T08:52:14.995Z,7.77
2018-06-27T08:54:44.918Z,8.73
2018-06-27T08:57:13.531Z,8.33
2018-06-27T08:59:41.802Z,7.73
2018-06-27T09:02:09.957Z,8.20
2018-06-27T09:04:39.597Z,8.47
2018-06-27T09:07:08.544Z,8.40
2018-06-27T09:09:36.482Z,9.63
2018-06-27T09:12:04.476Z,9.50
2018-06-27T09:14:32.241Z,8.50
2018-06-27T09:17:00.218Z,8.97
2018-06-27T09:19:28.772Z,7.90
2018-06-27T09:21:56.560Z,8.27
2018-06-27T09:24:25.139Z,7.20
2018-06-27T09:26:53.091Z,7.77
2018-06-27T09:29:21.930Z,7.97
2018-06-27T09:31:50.258Z,8.47
2018-06-27T09:34:19.395Z,8.90
2018-06-27T09:36:48.056Z,7.40
2018-06-27T09:39:16.126Z,6.90
2018-06-27T09:41:43.939Z,7.50
2018-06-27T09:44:12.075Z,7.80
2018-06-27T09:46:40.181Z,7.07
2018-06-27T09:49:09.634Z,6.30
2018-06-27T09:51:38.358Z,8.00
2018-06-27T09:54:06.441Z,8.30
2018-06-27T09:56:34.703Z,7.00
2018-06-27T09:59:03.273Z,7.00
2018-06-27T10:01:31.149Z,6.57
2018-06-27T10:03:59.209Z,6.10
2018-06-27T10:06:27.437Z,6.50
2018-06-27T10:08:56.022Z,7.10
2018-06-27T10:11:24.370Z,7.53
2018-06-27T10:13:53.545Z,7.40
2018-06-27T10:16:22.615Z,7.53
2018-06-27T10:18:50.807Z,8.33
2018-06-27T10:21:19.667Z,8.63
2018-06-27T10:23:47.564Z,7.23
2018-06-27T10:26:15.506Z,8.30
2018-06-27T10:28:43.432Z,7.83
2018-06-27T10:31:11.589Z,8.03
2018-06-27T10:33:39.358Z,7.07
2018-06-27T10:36:07.921Z,8.60
2018-06-27T10:38:35.762Z,8.20
2018-06-27T10:41:04.391Z,7.90
2018-06-27T10:43:32.438Z,7.67
2018-06-27T10:46:00.295Z,7.70
2018-06-27T10:48:28.316Z,8.67
2018-06-27T10:50:56.270Z,8.23
2018-06-27T10:53:24.548Z,7.30
2018-06-27T10:55:52.592Z,8.13
2018-06-27T10:58:21.986Z,7.80
2018-06-27T11:00:50.803Z,7.00
2018-06-27T11:03:18.733Z,6.80
2018-06-27T11:05:46.628Z,7.10
2018-06-27T11:08:14.925Z,6.83
2018-06-27T11:10:43.512Z,6.83
2018-06-27T11:13:11.455Z,7.13
2018-06-27T11:15:39.445Z,6.43
2018-06-27T11:18:07.355Z,6.50
2018-06-27T11:20:35.238Z,7.10
2018-06-27T11:23:03.254Z,6.37
2018-06-27T11:25:31.141Z,6.13
2018-06-27T11:27:59.390Z,6.37
2018-06-27T11:30:27.357Z,6.07
2018-06-27T11:32:55.312Z,6.20
2018-06-27T11:35:24.308Z,7.00
2018-06-27T11:37:52.100Z,6.83
2018-06-27T11:40:19.903Z,7.60
2018-06-27T11:42:48.851Z,6.80
2018-06-27T11:45:18.012Z,6.70
2018-06-27T11:47:46.121Z,7.00
2018-06-27T11:50:15.116Z,7.03
2018-06-27T11:52:43.196Z,6.67
2018-06-27T11:55:12.787Z,7.03
2018-06-27T11:57:43.637Z,7.43
2018-06-27T12:00:16.355Z,6.97
2018-06-27T12:02:47.212Z,6.30
2018-06-27T12:05:15.446Z,6.40
2018-06-27T12:07:45.016Z,6.67
2018-06-27T12:10:14.958Z,6.30
2018-06-27T12:12:43.534Z,7.00
2018-06-27T12:15:12.956Z,6.33
2018-06-27T12:17:41.938Z,6.33
2018-06-27T12:20:10.769Z,6.60
2018-06-27T12:22:39.639Z,6.87
2018-06-27T12:25:07.993Z,6.30
2018-06-27T12:27:37.196Z,6.43
2018-06-27T12:30:05.378Z,5.80
2018-06-27T12:32:33.642Z,5.97
2018-06-27T12:35:02.268Z,5.87
2018-06-27T12:37:30.303Z,5.60
2018-06-27T12:40:00.176Z,5.67
2018-06-27T12:42:29.184Z,5.90
2018-06-27T12:44:58.712Z,6.07
2018-06-27T12:47:27.538Z,6.20
2018-06-27T12:49:55.478Z,6.10
2018-06-27T12:52:23.879Z,6.03
2018-06-27T12:54:56.937Z,5.30
2018-06-27T12:57:26.296Z,5.30
2018-06-27T12:59:54.825Z,5.23
2018-06-27T13:02:25.735Z,5.60
2018-06-27T13:04:53.925Z,5.07
2018-06-27T13:07:23.393Z,5.63
2018-06-27T13:09:53.310Z,5.80
2018-06-27T13:12:21.963Z,5.33
2018-06-27T13:14:49.998Z,5.50
2018-06-27T13:17:17.810Z,5.63
2018-06-27T13:19:45.735Z,4.90
2018-06-27T13:22:14.289Z,4.87
2018-06-27T13:24:42.075Z,5.37
2018-06-27T13:27:12.594Z,5.57
2018-06-27T13:29:42.706Z,6.10
2018-06-27T13:32:11.639Z,5.30
2018-06-27T13:34:41.269Z,5.90
2018-06-27T13:37:11.025Z,5.53
2018-06-27T13:39:46.792Z,4.70
2018-06-27T13:42:17.379Z,5.30
2018-06-27T13:44:47.803Z,5.80
2018-06-27T13:47:18.149Z,5.67
2018-06-27T13:49:47.850Z,5.00
2018-06-27T13:52:18.596Z,5.37
2018-06-27T13:54:55.466Z,5.10
2018-06-27T13:57:26.594Z,5.80
2018-06-27T13:59:55.138Z,5.10
2018-06-27T14:02:24.108Z,4.60
2018-06-27T14:04:54.071Z,4.40
2018-06-27T14:07:22.990Z,3.90
2018-06-27T14:09:53.592Z,3.30
2018-06-27T14:12:23.712Z,4.00
2018-06-27T14:14:53.615Z,4.47
2018-06-27T14:17:24.430Z,4.03
2018-06-27T14:19:54.566Z,4.27
2018-06-27T14:22:23.612Z,3.80
2018-06-27T14:24:53.301Z,4.37
2018-06-27T14:27:22.678Z,5.07
2018-06-27T14:29:54.804Z,3.97
2018-06-27T14:32:26.475Z,4.63
2018-06-27T14:34:55.852Z,4.77
2018-06-27T14:37:28.752Z,3.20
2018-06-27T14:39:56.891Z,4.10
2018-06-27T14:42:25.510Z,4.07
2018-06-27T14:44:55.635Z,4.00
2018-06-27T14:47:25.898Z,4.40
2018-06-27T14:49:54.158Z,4.40
2018-06-27T14:52:23.743Z,4.20
2018-06-27T14:54:53.041Z,5.07
2018-06-27T14:57:21.028Z,4.50
2018-06-27T14:59:49.586Z,4.63
2018-06-27T15:02:18.455Z,4.57
2018-06-27T15:04:47.796Z,4.70
2018-06-27T15:07:16.553Z,4.50
2018-06-27T15:09:44.609Z,5.47
2018-06-27T15:12:12.624Z,4.63
2018-06-27T15:14:41.348Z,5.13
2018-06-27T15:17:09.251Z,4.63
2018-06-27T15:19:37.151Z,4.73
2018-06-27T15:22:05.172Z,5.30
2018-06-27T15:24:34.060Z,5.03
2018-06-27T15:27:02.644Z,5.33
2018-06-27T15:29:30.639Z,5.53
2018-06-27T15:31:59.151Z,5.00
2018-06-27T15:34:27.043Z,4.70
2018-06-27T15:36:54.991Z,4.70
2018-06-27T15:39:22.887Z,5.00
2018-06-27T15:41:51.094Z,5.30
2018-06-27T15:44:19.023Z,4.70
2018-06-27T15:46:47.017Z,4.90
2018-06-27T15:49:14.897Z,4.93
2018-06-27T15:51:42.957Z,4.90
2018-06-27T15:54:12.308Z,5.13
2018-06-27T15:56:40.238Z,5.20
2018-06-27T15:59:08.179Z,4.67
2018-06-27T16:01:36.846Z,4.70
2018-06-27T16:04:05.639Z,4.70
2018-06-27T16:06:33.592Z,5.43
2018-06-27T16:09:01.555Z,5.10
2018-06-27T16:11:29.600Z,4.83
2018-06-27T16:13:57.534Z,5.30
2018-06-27T16:16:25.455Z,4.97
2018-06-27T16:18:53.426Z,5.70
2018-06-27T16:21:22.059Z,5.20
2018-06-27T16:23:49.988Z,5.03
2018-06-27T16:26:18.778Z,5.20
2018-06-27T16:28:46.747Z,5.50
2018-06-27T16:31:15.464Z,5.33
2018-06-27T16:33:44.124Z,5.40
2018-06-27T16:36:12.124Z,6.10
2018-06-27T16:38:40.089Z,6.57
2018-06-27T16:41:07.995Z,6.20
2018-06-27T16:43:35.935Z,6.40
2018-06-27T16:46:04.197Z,6.00
2018-06-27T16:48:33.273Z,5.80
2018-06-27T16:51:01.366Z,5.67
2018-06-27T16:53:29.393Z,5.83
2018-06-27T16:55:57.950Z,5.70
2018-06-27T16:58:25.862Z,6.13
2018-06-27T17:00:54.651Z,5.87
2018-06-27T17:03:22.514Z,6.10
2018-06-27T17:05:50.399Z,6.60
2018-06-27T17:08:18.380Z,6.40
2018-06-27T17:10:46.275Z,5.37
2018-06-27T17:13:14.239Z,6.40
2018-06-27T17:15:42.571Z,6.60
2018-06-27T17:18:10.618Z,6.10
2018-06-27T17:20:38.359Z,5.80
2018-06-27T17:23:06.337Z,5.90
2018-06-27T17:25:34.336Z,6.97
2018-06-27T17:28:02.262Z,10.67
2018-06-27T17:30:30.564Z,9.87
2018-06-27T17:32:59.233Z,9.17
2018-06-27T17:35:27.003Z,9.50
2018-06-27T17:37:55.066Z,9.20
2018-06-27T17:40:22.840Z,9.67
2018-06-27T17:42:51.806Z,11.90
2018-06-27T17:45:19.771Z,10.67
2018-06-27T17:47:47.744Z,11.70
2018-06-27T17:50:15.716Z,11.73
2018-06-27T17:52:43.488Z,12.37
2018-06-27T17:55:11.451Z,13.47
2018-06-27T17:57:39.470Z,13.33
2018-06-27T18:00:07.584Z,13.80
2018-06-27T18:02:35.528Z,14.03
2018-06-27T18:05:03.525Z,13.70
2018-06-27T18:07:32.244Z,14.50
2018-06-27T18:10:00.764Z,13.00
2018-06-27T18:12:28.727Z,15.03
2018-06-27T18:14:56.716Z,14.60
2018-06-27T18:17:24.639Z,13.70
2018-06-27T18:19:53.110Z,15.80
2018-06-27T18:22:21.296Z,14.67
2018-06-27T18:24:49.061Z,15.27
2018-06-27T18:27:16.815Z,14.20
2018-06-27T18:29:44.794Z,15.33
2018-06-27T18:32:12.718Z,14.00
2018-06-27T18:34:40.636Z,15.63
2018-06-27T18:37:08.595Z,15.33
2018-06-27T18:39:36.562Z,14.00
2018-06-27T18:42:04.535Z,15.13
2018-06-27T18:44:32.342Z,14.60
2018-06-27T18:47:00.305Z,15.73
2018-06-27T18:49:28.227Z,15.70
2018-06-27T18:51:56.079Z,13.87
2018-06-27T18:54:24.122Z,13.43
2018-06-27T18:56:52.003Z,15.03
2018-06-27T18:59:20.040Z,13.50
2018-06-27T19:01:48.051Z,13.37
2018-06-27T19:04:16.055Z,14.13
2018-06-27T19:06:44.027Z,14.03
2018-06-27T19:09:12.627Z,13.40
2018-06-27T19:11:41.324Z,14.70
2018-06-27T19:14:09.307Z,13.90
2018-06-27T19:16:37.359Z,14.90
2018-06-27T19:19:05.678Z,14.97
2018-06-27T19:21:33.572Z,12.37
2018-06-27T19:24:01.496Z,13.20
2018-06-27T19:26:29.423Z,13.03
2018-06-27T19:28:57.410Z,13.03
2018-06-27T19:31:25.274Z,14.77
2018-06-27T19:33:53.184Z,13.40
2018-06-27T19:36:21.099Z,13.30
2018-06-27T19:38:49.258Z,15.07
2018-06-27T19:41:17.238Z,14.57
2018-06-27T19:43:45.296Z,13.10
2018-06-27T19:46:13.085Z,14.07
2018-06-27T19:48:41.885Z,13.03
2018-06-27T19:51:10.017Z,12.83
2018-06-27T19:53:37.950Z,12.87
2018-06-27T19:56:07.587Z,13.37
2018-06-27T19:58:36.616Z,13.57
2018-06-27T20:01:05.010Z,12.90
2018-06-27T20:03:32.974Z,14.97
2018-06-27T20:06:01.535Z,14.73
2018-06-27T20:08:29.418Z,15.10
2018-06-27T20:10:58.046Z,13.83
2018-06-27T20:13:26.020Z,15.03
2018-06-27T20:15:54.002Z,13.80
2018-06-27T20:18:21.923Z,12.13
2018-06-27T20:20:51.386Z,15.00
2018-06-27T20:23:20.405Z,15.40
2018-06-27T20:25:48.334Z,14.10
2018-06-27T20:28:16.266Z,14.70
2018-06-27T20:30:44.227Z,15.10
2018-06-27T20:33:12.160Z,14.60
2018-06-27T20:35:40.856Z,14.60
2018-06-27T20:38:08.751Z,13.93
2018-06-27T20:40:37.528Z,14.70
2018-06-27T20:43:05.780Z,14.50
2018-06-27T20:45:33.875Z,14.00
2018-06-27T20:48:02.263Z,13.83
2018-06-27T20:50:30.265Z,15.70
2018-06-27T20:52:58.215Z,14.43
2018-06-27T20:55:27.121Z,12.90
2018-06-27T20:57:57.643Z,12.30
2018-06-27T21:00:26.183Z,13.33
2018-06-27T21:02:54.457Z,12.17
2018-06-27T21:05:22.257Z,12.00
2018-06-27T21:07:50.858Z,11.03
2018-06-27T21:10:18.892Z,11.80
2018-06-27T21:12:47.336Z,12.47
2018-06-27T21:15:16.229Z,12.03
2018-06-27T21:17:44.182Z,11.47
2018-06-27T21:20:12.872Z,12.43
2018-06-27T21:22:40.832Z,13.13
2018-06-27T21:25:09.688Z,11.53
2018-06-27T21:27:37.630Z,12.97
2018-06-27T21:30:07.481Z,11.10
2018-06-27T21:32:35.382Z,12.20
2018-06-27T21:35:04.404Z,11.63
2018-06-27T21:37:32.363Z,10.60
2018-06-27T21:40:00.664Z,11.60
2018-06-27T21:42:29.281Z,11.60
2018-06-27T21:44:57.428Z,9.70
2018-06-27T21:47:25.720Z,10.73
2018-06-27T21:49:53.560Z,11.27
2018-06-27T21:52:22.542Z,10.80
2018-06-27T21:54:50.580Z,11.27
2018-06-27T21:57:19.124Z,10.63
2018-06-27T21:59:48.109Z,11.27
2018-06-27T22:02:16.687Z,11.30
2018-06-27T22:04:45.448Z,10.33
2018-06-27T22:07:13.269Z,9.60
2018-06-27T22:09:41.186Z,9.40
2018-06-27T22:12:08.967Z,9.23
2018-06-27T22:14:36.947Z,10.37
2018-06-27T22:17:06.116Z,11.50
2018-06-27T22:19:33.898Z,11.50
2018-06-27T22:22:01.840Z,9.80
2018-06-27T22:24:29.754Z,11.10
2018-06-27T22:26:57.700Z,9.70
2018-06-27T22:29:26.299Z,10.00
2018-06-27T22:31:54.576Z,10.47
2018-06-27T22:34:23.191Z,9.67
2018-06-27T22:36:52.112Z,10.03
2018-06-27T22:39:19.888Z,10.50
2018-06-27T22:41:48.934Z,9.53
2018-06-27T22:44:16.811Z,11.10
2018-06-27T22:46:44.813Z,10.40
2018-06-27T22:49:13.297Z,9.57
2018-06-27T22:51:41.307Z,10.73
2018-06-27T22:54:09.260Z,10.03
2018-06-27T22:56:37.163Z,10.17
2018-06-27T22:59:05.723Z,9.73
2018-06-27T23:01:33.612Z,9.57
2018-06-27T23:04:01.518Z,9.13
2018-06-27T23:06:29.498Z,8.80
2018-06-27T23:08:58.304Z,8.60
2018-06-27T23:11:26.519Z,9.10
2018-06-27T23:13:55.079Z,9.83
2018-06-27T23:16:22.827Z,9.50
2018-06-27T23:18:50.563Z,9.30
2018-06-27T23:21:18.442Z,9.60
2018-06-27T23:23:46.349Z,8.77
2018-06-27T23:26:15.072Z,8.33
2018-06-27T23:28:43.614Z,10.30
2018-06-27T23:31:11.539Z,8.17
2018-06-27T23:33:39.455Z,9.10
2018-06-27T23:36:08.171Z,8.67
2018-06-27T23:38:36.060Z,9.10
2018-06-27T23:41:03.936Z,8.20
2018-06-27T23:43:32.167Z,7.33
2018-06-27T23:46:00.047Z,7.00
2018-06-27T23:48:27.935Z,7.60
2018-06-27T23:50:56.316Z,6.63
2018-06-27T23:53:24.192Z,8.57
2018-06-27T23:55:52.078Z,7.70
2018-06-27T23:58:20.222Z,8.60
